Time;durP1;ratioP1;P1;durP2;ratioP2;P2;SDS_P1;SDS_P2;PMS_P1;PMS_P2;Temp;Humidity;BMP_temperature;BMP_pressure;BME280_temperature;BME280_humidity;BME280_pressure;Samples;Min_cycle;Max_cycle;Signal;HPM_P1;HPM_P2
2021/10/06 00:01:42;;;;;;;7.07;1.63;;;;;;;10.73;100.00;100723.00;5193382;28;20483;-69
2021/10/06 00:04:13;;;;;;;8.10;2.47;;;;;;;10.78;100.00;100723.41;5193562;28;20034;-69
2021/10/06 00:06:45;;;;;;;8.35;2.00;;;;;;;10.80;100.00;100724.13;5192721;28;20039;-68
2021/10/06 00:09:16;;;;;;;7.25;1.73;;;;;;;10.83;100.00;100721.19;5191800;28;20034;-68
2021/10/06 00:11:47;;;;;;;6.75;1.60;;;;;;;10.85;100.00;100718.47;5194279;28;20101;-68
2021/10/06 00:14:20;;;;;;;5.50;1.70;;;;;;;10.86;100.00;100713.06;5192851;28;20030;-68
2021/10/06 00:16:52;;;;;;;5.90;1.97;;;;;;;10.89;100.00;100715.44;5194630;28;20031;-69
2021/10/06 00:19:24;;;;;;;5.72;1.70;;;;;;;10.87;100.00;100713.91;5191490;28;20027;-68
2021/10/06 00:21:57;;;;;;;9.48;2.13;;;;;;;10.85;100.00;100721.09;5191684;28;20074;-68
2021/10/06 00:24:29;;;;;;;7.30;1.90;;;;;;;10.80;100.00;100713.63;5191570;28;20105;-68
2021/10/06 00:27:00;;;;;;;6.82;1.88;;;;;;;10.77;100.00;100721.75;5193544;28;20693;-68
2021/10/06 00:29:31;;;;;;;7.43;1.98;;;;;;;10.73;100.00;100714.31;5193603;28;20026;-69
2021/10/06 00:32:03;;;;;;;7.72;1.90;;;;;;;10.69;100.00;100718.97;5194675;28;20042;-68
2021/10/06 00:34:34;;;;;;;7.82;1.90;;;;;;;10.68;100.00;100727.78;5190357;28;20046;-68
2021/10/06 00:37:05;;;;;;;8.00;1.70;;;;;;;10.66;100.00;100719.25;5193308;28;20034;-68
2021/10/06 00:39:37;;;;;;;5.72;2.00;;;;;;;10.61;100.00;100721.44;5189609;28;20035;-68
2021/10/06 00:42:08;;;;;;;7.93;2.17;;;;;;;10.61;100.00;100721.44;5193135;28;20037;-68
2021/10/06 00:44:40;;;;;;;10.45;2.25;;;;;;;10.60;100.00;100727.63;5190485;28;20026;-68
2021/10/06 00:47:13;;;;;;;9.63;2.08;;;;;;;10.55;100.00;100730.66;5193289;28;20030;-69
2021/10/06 00:49:44;;;;;;;10.63;1.92;;;;;;;10.54;100.00;100722.94;5190584;28;20046;-68
2021/10/06 00:52:16;;;;;;;8.05;2.15;;;;;;;10.53;100.00;100729.97;5194159;28;20045;-69
2021/10/06 00:54:51;;;;;;;7.35;1.83;;;;;;;10.55;100.00;100728.03;5191388;28;20035;-68
2021/10/06 00:57:22;;;;;;;8.90;2.47;;;;;;;10.54;100.00;100741.28;5190309;28;20495;-69
2021/10/06 00:59:55;;;;;;;9.55;2.10;;;;;;;10.56;100.00;100731.47;5191125;28;20038;-68
2021/10/06 01:02:27;;;;;;;10.00;2.30;;;;;;;10.57;100.00;100730.50;5193351;28;20061;-68
2021/10/06 01:04:58;;;;;;;10.05;2.20;;;;;;;10.58;100.00;100734.81;5188380;28;20113;-68
2021/10/06 01:07:30;;;;;;;9.25;1.88;;;;;;;10.56;100.00;100739.34;5191766;28;20042;-70
2021/10/06 01:10:03;;;;;;;10.65;2.03;;;;;;;10.54;100.00;100725.56;5188956;28;20102;-68
2021/10/06 01:12:36;;;;;;;8.63;1.92;;;;;;;10.58;100.00;100730.38;5191939;28;20408;-68
2021/10/06 01:15:11;;;;;;;8.18;2.10;;;;;;;10.60;100.00;100741.53;5189494;28;20026;-68
2021/10/06 01:17:43;;;;;;;8.63;1.98;;;;;;;10.59;100.00;100746.94;5192039;28;20046;-68
2021/10/06 01:20:15;;;;;;;8.15;1.67;;;;;;;10.61;100.00;100750.25;5191699;28;20023;-68
2021/10/06 01:22:46;;;;;;;8.45;2.22;;;;;;;10.60;100.00;100751.19;5191614;28;20032;-69
2021/10/06 01:25:18;;;;;;;8.75;2.53;;;;;;;10.62;100.00;100751.91;5191236;28;20109;-69
2021/10/06 01:27:49;;;;;;;8.50;2.00;;;;;;;10.64;100.00;100753.41;5192316;28;20594;-68
2021/10/06 01:30:20;;;;;;;10.20;2.03;;;;;;;10.65;100.00;100755.09;5190099;28;20480;-68
2021/10/06 01:32:52;;;;;;;8.68;2.33;;;;;;;10.67;100.00;100753.16;5190508;28;20030;-68
2021/10/06 01:35:23;;;;;;;7.00;1.70;;;;;;;10.65;100.00;100749.84;5191494;28;20018;-68
2021/10/06 01:37:54;;;;;;;10.27;2.35;;;;;;;10.71;100.00;100754.53;5191160;28;20082;-68
2021/10/06 01:40:26;;;;;;;10.73;2.10;;;;;;;10.74;100.00;100756.09;5189889;28;20030;-68
2021/10/06 01:42:57;;;;;;;8.73;1.67;;;;;;;10.74;100.00;100757.88;5190720;28;20010;-68
2021/10/06 01:45:30;;;;;;;6.72;1.70;;;;;;;10.75;100.00;100767.38;5191863;28;20490;-68
2021/10/06 01:48:06;;;;;;;9.10;1.85;;;;;;;10.74;100.00;100773.59;5190612;28;20033;-69
2021/10/06 01:50:41;;;;;;;8.32;2.35;;;;;;;10.73;100.00;100762.28;5192742;28;20487;-69
2021/10/06 01:53:14;;;;;;;6.35;2.20;;;;;;;10.74;100.00;100768.34;5191221;28;20057;-68
2021/10/06 01:55:46;;;;;;;7.38;1.73;;;;;;;10.74;100.00;100763.94;5190948;28;20043;-69
2021/10/06 01:58:18;;;;;;;11.15;2.30;;;;;;;10.74;100.00;100761.31;5190792;28;20088;-69
2021/10/06 02:00:50;;;;;;;10.25;2.40;;;;;;;10.75;100.00;100765.59;5185903;28;20065;-68
2021/10/06 02:03:21;;;;;;;11.30;1.85;;;;;;;10.75;100.00;100770.00;5189904;28;20097;-68
2021/10/06 02:05:53;;;;;;;8.60;2.33;;;;;;;10.77;100.00;100773.34;5189656;28;20496;-68
2021/10/06 02:08:24;;;;;;;8.45;2.17;;;;;;;10.78;100.00;100777.59;5191656;28;20047;-68
2021/10/06 02:10:55;;;;;;;7.22;2.10;;;;;;;10.78;100.00;100775.81;5191074;28;20030;-68
2021/10/06 02:13:27;;;;;;;11.35;1.85;;;;;;;10.79;100.00;100772.22;5190749;28;20054;-68
2021/10/06 02:15:58;;;;;;;8.18;1.80;;;;;;;10.80;100.00;100773.91;5189669;28;20018;-68
2021/10/06 02:18:30;;;;;;;5.72;1.58;;;;;;;10.80;100.00;100771.28;5189177;28;20041;-69
2021/10/06 02:21:01;;;;;;;7.38;1.70;;;;;;;10.81;100.00;100766.88;5188922;28;20113;-68
2021/10/06 02:23:33;;;;;;;7.53;1.45;;;;;;;10.83;100.00;100763.13;5189435;28;20113;-68
2021/10/06 02:26:05;;;;;;;9.73;1.83;;;;;;;10.84;100.00;100764.81;5191467;28;20476;-69
2021/10/06 02:28:36;;;;;;;5.20;1.38;;;;;;;10.86;100.00;100759.41;5189968;28;20034;-68
2021/10/06 02:31:07;;;;;;;9.77;1.52;;;;;;;10.90;100.00;100747.72;5191119;28;20026;-68
2021/10/06 02:33:39;;;;;;;7.07;1.48;;;;;;;10.89;100.00;100752.13;5189828;28;20381;-69
2021/10/06 02:36:10;;;;;;;6.35;1.73;;;;;;;10.90;100.00;100747.72;5190818;28;20034;-68
2021/10/06 02:38:41;;;;;;;10.63;2.20;;;;;;;10.91;100.00;100742.34;5191298;28;20076;-68
2021/10/06 02:41:12;;;;;;;6.40;1.83;;;;;;;10.90;100.00;100748.53;5190049;28;20455;-68
2021/10/06 02:43:44;;;;;;;5.25;1.35;;;;;;;10.91;100.00;100744.13;5190949;28;20088;-68
2021/10/06 02:46:15;;;;;;;6.15;1.45;;;;;;;10.88;100.00;100741.78;5190645;28;20514;-69
2021/10/06 02:48:46;;;;;;;9.68;1.83;;;;;;;10.93;100.00;100748.25;5191263;28;20439;-68
2021/10/06 02:51:18;;;;;;;9.32;1.92;;;;;;;10.91;100.00;100744.97;5191041;28;20121;-69
2021/10/06 02:53:49;;;;;;;7.68;1.67;;;;;;;10.92;100.00;100751.84;5191482;28;20026;-68
2021/10/06 02:56:20;;;;;;;5.93;1.88;;;;;;;10.95;100.00;100758.63;5192051;28;20026;-68
2021/10/06 02:58:52;;;;;;;8.05;1.95;;;;;;;10.93;100.00;100753.50;5191127;28;20026;-69
2021/10/06 03:01:23;;;;;;;6.40;1.65;;;;;;;10.94;100.00;100763.03;5189769;28;20132;-68
2021/10/06 03:03:55;;;;;;;4.10;1.05;;;;;;;10.95;100.00;100750.78;5192844;28;20084;-69
2021/10/06 03:06:26;;;;;;;5.70;1.40;;;;;;;10.95;100.00;100758.63;5203957;28;20034;-68
2021/10/06 03:08:57;;;;;;;7.25;1.60;;;;;;;10.95;100.00;100756.00;5189036;28;20950;-69
2021/10/06 03:11:29;;;;;;;8.15;1.75;;;;;;;10.96;100.00;100762.91;5189899;28;20037;-68
2021/10/06 03:14:00;;;;;;;10.43;1.77;;;;;;;10.93;100.00;100757.94;5192144;28;20037;-68
2021/10/06 03:16:31;;;;;;;6.13;1.85;;;;;;;10.94;100.00;100759.56;5191222;28;20084;-68
2021/10/06 03:19:03;;;;;;;6.72;1.92;;;;;;;10.94;100.00;100767.44;5190430;28;20030;-68
2021/10/06 03:21:35;;;;;;;5.50;1.50;;;;;;;10.92;100.00;100772.81;5190595;28;20027;-68
2021/10/06 03:24:06;;;;;;;6.65;1.30;;;;;;;10.92;100.00;100766.75;5189662;28;20033;-68
2021/10/06 03:26:37;;;;;;;5.90;1.52;;;;;;;10.90;100.00;100769.50;5190833;28;20050;-68
2021/10/06 03:29:09;;;;;;;5.30;1.48;;;;;;;10.88;100.00;100766.19;5190954;28;20023;-68
2021/10/06 03:31:41;;;;;;;10.00;1.48;;;;;;;10.83;100.00;100762.31;5190206;28;20134;-68
2021/10/06 03:34:12;;;;;;;7.88;1.85;;;;;;;10.81;100.00;100779.97;5188216;28;20652;-68
2021/10/06 03:36:43;;;;;;;8.07;1.95;;;;;;;10.78;100.00;100775.00;5192425;28;20026;-68
2021/10/06 03:39:15;;;;;;;5.20;1.80;;;;;;;10.75;100.00;100790.97;5188881;28;20113;-69
2021/10/06 03:41:46;;;;;;;5.90;1.67;;;;;;;10.69;100.00;100777.44;5189345;28;20546;-68
2021/10/06 03:44:17;;;;;;;7.97;1.70;;;;;;;10.69;100.00;100789.72;5190072;28;20373;-69
2021/10/06 03:46:48;;;;;;;8.82;1.88;;;;;;;10.66;100.00;100789.97;5191886;28;20109;-69
2021/10/06 03:49:20;;;;;;;5.53;1.65;;;;;;;10.62;100.00;100797.28;5190572;28;20495;-68
2021/10/06 03:51:51;;;;;;;10.10;1.90;;;;;;;10.60;100.00;100795.75;5189468;28;20056;-68
2021/10/06 03:54:22;;;;;;;5.55;1.45;;;;;;;10.58;100.00;100800.28;5189375;28;20057;-68
2021/10/06 03:56:54;;;;;;;6.15;1.58;;;;;;;10.60;100.00;100798.34;5189592;28;20030;-68
2021/10/06 03:59:25;;;;;;;7.05;2.00;;;;;;;10.59;100.00;100796.69;5190111;28;20026;-68
2021/10/06 04:01:56;;;;;;;4.38;1.55;;;;;;;10.61;100.00;100800.03;5187671;28;20019;-68
2021/10/06 04:04:27;;;;;;;7.43;2.28;;;;;;;10.57;100.00;100798.63;5188761;28;20038;-68
2021/10/06 04:06:59;;;;;;;7.63;1.50;;;;;;;10.57;100.00;100809.94;5187711;28;20396;-68
2021/10/06 04:09:30;;;;;;;5.78;1.67;;;;;;;10.55;100.00;100798.75;5189646;28;20042;-68
2021/10/06 04:12:01;;;;;;;10.82;1.83;;;;;;;10.52;100.00;100798.19;5190971;28;20034;-68
2021/10/06 04:14:33;;;;;;;10.10;2.33;;;;;;;10.54;100.00;100810.19;5192626;28;20028;-68
2021/10/06 04:17:04;;;;;;;7.35;1.58;;;;;;;10.54;100.00;100810.19;5193818;28;20030;-68
2021/10/06 04:19:35;;;;;;;8.68;1.50;;;;;;;10.55;100.00;100805.78;5192270;28;20065;-68
2021/10/06 04:22:06;;;;;;;7.13;1.85;;;;;;;10.52;100.00;100812.09;5193426;28;20023;-68
2021/10/06 04:24:38;;;;;;;9.00;1.67;;;;;;;10.48;100.00;100818.56;5193001;28;20018;-68
2021/10/06 04:27:10;;;;;;;7.30;1.80;;;;;;;10.50;100.00;100815.84;5194782;28;20069;-68
2021/10/06 04:29:41;;;;;;;6.88;2.08;;;;;;;10.44;100.00;100817.16;5190501;28;20029;-69
2021/10/06 04:32:12;;;;;;;8.48;2.03;;;;;;;10.46;100.00;100823.13;5189049;28;20033;-68
2021/10/06 04:34:44;;;;;;;7.97;2.08;;;;;;;10.44;100.00;100825.03;5192068;28;20038;-69
2021/10/06 04:37:15;;;;;;;6.65;2.00;;;;;;;10.41;100.00;100818.25;5195077;28;20747;-69
2021/10/06 04:39:46;;;;;;;9.30;2.17;;;;;;;10.42;100.00;100826.97;5193854;28;20018;-69
2021/10/06 04:42:18;;;;;;;8.93;2.28;;;;;;;10.38;100.00;100825.53;5192517;28;20045;-69
2021/10/06 04:44:49;;;;;;;8.02;1.80;;;;;;;10.33;100.00;100828.56;5194970;28;20026;-69
2021/10/06 04:47:21;;;;;;;8.75;1.67;;;;;;;10.36;100.00;100835.31;5194201;28;20085;-69
2021/10/06 04:49:52;;;;;;;7.45;2.00;;;;;;;10.34;100.00;100830.22;5192682;28;20025;-69
2021/10/06 04:52:23;;;;;;;8.75;1.80;;;;;;;10.33;100.00;100827.72;5191298;28;20034;-69
2021/10/06 04:54:55;;;;;;;10.40;1.98;;;;;;;10.31;100.00;100824.41;5193693;28;20031;-69
2021/10/06 04:57:26;;;;;;;11.23;2.10;;;;;;;10.22;100.00;100828.59;5191319;28;20034;-69
2021/10/06 04:59:58;;;;;;;11.77;2.40;;;;;;;10.24;100.00;100826.69;5195700;28;20092;-70
2021/10/06 05:02:29;;;;;;;8.93;1.88;;;;;;;10.23;100.00;100825.03;5190386;28;20026;-69
2021/10/06 05:05:00;;;;;;;9.38;2.50;;;;;;;10.23;100.00;100836.34;5192620;28;20040;-69
2021/10/06 05:07:32;;;;;;;6.47;1.77;;;;;;;10.17;100.00;100825.53;5193116;28;20088;-69
2021/10/06 05:10:03;;;;;;;12.65;2.20;;;;;;;10.14;100.00;100834.47;5194578;28;20504;-69
2021/10/06 05:12:35;;;;;;;5.88;1.63;;;;;;;10.15;100.00;100838.75;5191536;28;20400;-69
2021/10/06 05:15:07;;;;;;;6.95;1.92;;;;;;;10.19;100.00;100841.91;5192696;28;20109;-69
2021/10/06 05:17:38;;;;;;;6.32;1.75;;;;;;;10.15;100.00;100836.13;5191434;28;20047;-69
2021/10/06 05:20:10;;;;;;;9.57;2.13;;;;;;;10.15;100.00;100838.75;5188363;28;20101;-69
2021/10/06 05:22:41;;;;;;;7.13;1.80;;;;;;;10.14;100.00;100831.00;5192815;28;20400;-69
2021/10/06 05:25:13;;;;;;;8.32;2.00;;;;;;;10.11;100.00;100842.56;5192058;28;20118;-69
2021/10/06 05:27:44;;;;;;;7.43;1.70;;;;;;;10.11;100.00;100850.41;5192102;28;20076;-69
2021/10/06 05:30:16;;;;;;;8.02;1.98;;;;;;;10.11;100.00;100849.59;5189632;28;20068;-69
2021/10/06 05:32:49;;;;;;;10.57;2.10;;;;;;;10.09;100.00;100846.28;5187537;28;20085;-69
2021/10/06 05:35:20;;;;;;;;;;;;;;;10.27;100.00;100855.25;5192402;28;20038;-69
2021/10/06 05:37:52;;;;;;;7.32;2.13;;;;;;;10.08;100.00;100845.47;5190500;28;20331;-69
2021/10/06 05:40:23;;;;;;;6.70;2.30;;;;;;;10.07;100.00;100853.41;5182201;28;20686;-68
2021/10/06 05:42:54;;;;;;;8.10;2.53;;;;;;;10.07;100.00;100848.19;5187415;28;20035;-69
2021/10/06 05:45:26;;;;;;;7.00;1.77;;;;;;;10.07;100.00;100840.31;5190628;28;20038;-69
2021/10/06 05:47:57;;;;;;;9.57;2.10;;;;;;;10.08;100.00;100845.47;5181978;28;20035;-70
2021/10/06 05:50:28;;;;;;;9.80;2.05;;;;;;;10.04;100.00;100853.66;5188053;28;20182;-68
2021/10/06 05:53:01;;;;;;;8.07;2.00;;;;;;;9.94;100.00;100833.50;5184235;28;20030;-68
2021/10/06 05:55:32;;;;;;;10.25;2.58;;;;;;;9.97;100.00;100842.91;5187445;28;20038;-68
2021/10/06 05:58:04;;;;;;;7.40;2.20;;;;;;;9.98;100.00;100855.00;5183997;28;20519;-68
2021/10/06 06:00:35;;;;;;;7.53;2.53;;;;;;;9.90;100.00;100847.78;5192862;28;20121;-68
2021/10/06 06:03:10;;;;;;;10.98;2.67;;;;;;;9.96;100.00;100863.00;5194019;28;20015;-68
2021/10/06 06:05:41;;;;;;;9.35;1.90;;;;;;;9.96;100.00;100862.16;5195406;28;20043;-68
2021/10/06 06:08:13;;;;;;;14.30;3.20;;;;;;;9.94;100.00;100859.66;5193833;28;20046;-68
2021/10/06 06:10:45;;;;;;;7.78;2.10;;;;;;;9.96;100.00;100849.91;5189394;28;20022;-68
2021/10/06 06:13:16;;;;;;;7.55;2.17;;;;;;;9.96;100.00;100846.44;5193361;28;20172;-68
2021/10/06 06:15:52;;;;;;;6.53;2.30;;;;;;;9.95;100.00;100856.09;5191270;28;20053;-69
2021/10/06 06:18:23;;;;;;;11.43;2.38;;;;;;;9.98;100.00;100862.88;5188929;28;20453;-70
2021/10/06 06:20:54;;;;;;;5.90;2.75;;;;;;;9.94;100.00;100859.66;5188679;28;20053;-69
2021/10/06 06:23:26;;;;;;;13.23;2.78;;;;;;;9.96;100.00;100870.84;5188324;28;20165;-69
2021/10/06 06:25:58;;;;;;;5.50;2.40;;;;;;;9.95;100.00;100865.72;5188308;28;20034;-69
2021/10/06 06:28:29;;;;;;;7.90;2.58;;;;;;;9.95;100.00;100879.63;5186619;28;20030;-71
2021/10/06 06:31:00;;;;;;;11.02;2.83;;;;;;;9.94;100.00;100880.59;5187243;28;20018;-70
2021/10/06 06:33:32;;;;;;;11.73;3.03;;;;;;;9.98;100.00;100875.94;5188331;28;20045;-70
2021/10/06 06:36:04;;;;;;;5.90;2.67;;;;;;;9.97;100.00;100879.53;5189086;28;20022;-70
2021/10/06 06:38:36;;;;;;;11.13;2.58;;;;;;;9.97;100.00;100874.31;5192503;28;20061;-70
2021/10/06 06:41:07;;;;;;;8.13;2.58;;;;;;;9.93;100.00;100881.56;5188837;28;20429;-70
2021/10/06 06:43:39;;;;;;;10.02;2.72;;;;;;;9.99;100.00;100888.06;5184698;28;20424;-70
2021/10/06 06:46:10;;;;;;;8.20;2.58;;;;;;;9.99;100.00;100888.91;5188388;28;20026;-70
2021/10/06 06:48:42;;;;;;;10.43;2.92;;;;;;;10.00;100.00;100900.22;5191238;28;20057;-70
2021/10/06 06:51:14;;;;;;;8.95;2.92;;;;;;;9.99;100.00;100883.66;5190159;28;20038;-70
2021/10/06 06:53:45;;;;;;;9.98;3.35;;;;;;;9.97;100.00;100892.63;5189880;28;20400;-70
2021/10/06 06:56:16;;;;;;;8.20;3.00;;;;;;;10.02;100.00;100893.06;5187226;28;20157;-70
2021/10/06 06:58:49;;;;;;;8.05;2.92;;;;;;;10.01;100.00;100901.88;5187959;28;20297;-70
2021/10/06 07:01:21;;;;;;;7.32;2.80;;;;;;;10.02;100.00;100902.72;5189499;28;20134;-70
2021/10/06 07:03:52;;;;;;;6.65;2.97;;;;;;;10.05;100.00;100898.06;5187843;28;20122;-70
2021/10/06 07:06:25;;;;;;;9.30;3.00;;;;;;;10.03;100.00;100893.88;5184574;28;20061;-70
2021/10/06 07:08:56;;;;;;;6.95;2.70;;;;;;;10.07;100.00;100897.91;5188092;28;20409;-70
2021/10/06 07:11:27;;;;;;;5.95;2.95;;;;;;;10.04;100.00;100887.69;5189335;28;20038;-70
2021/10/06 07:13:59;;;;;;;7.50;2.92;;;;;;;10.03;100.00;100899.94;5189680;28;20026;-69
2021/10/06 07:16:30;;;;;;;7.20;2.90;;;;;;;10.02;100.00;100903.53;5187291;28;20034;-70
2021/10/06 07:19:02;;;;;;;7.35;3.13;;;;;;;10.05;100.00;100903.28;5188035;28;20026;-70
2021/10/06 07:21:33;;;;;;;11.80;3.30;;;;;;;10.05;100.00;100910.31;5187950;28;20069;-70
2021/10/06 07:24:04;;;;;;;7.53;3.00;;;;;;;10.09;100.00;100920.41;5188363;28;20320;-70
2021/10/06 07:26:35;;;;;;;6.60;3.08;;;;;;;10.11;100.00;100912.41;5189823;28;20038;-70
2021/10/06 07:29:08;;;;;;;7.70;3.10;;;;;;;10.11;100.00;100920.25;5191049;28;20026;-70
2021/10/06 07:31:39;;;;;;;7.87;3.60;;;;;;;10.11;100.00;100920.25;5187784;28;20062;-70
2021/10/06 07:34:11;;;;;;;7.80;3.28;;;;;;;10.07;100.00;100911.00;5188791;28;20498;-70
2021/10/06 07:36:42;;;;;;;5.93;2.80;;;;;;;10.10;100.00;100914.22;5189068;28;20065;-70
2021/10/06 07:39:13;;;;;;;5.82;3.33;;;;;;;10.10;100.00;100918.63;5182306;28;20160;-70
2021/10/06 07:41:45;;;;;;;4.88;2.45;;;;;;;10.17;100.00;100930.25;5185856;28;20027;-70
2021/10/06 07:44:17;;;;;;;5.47;2.63;;;;;;;10.18;100.00;100930.13;5189330;28;20026;-70
2021/10/06 07:46:49;;;;;;;6.50;2.58;;;;;;;10.20;100.00;100938.69;5187798;28;20027;-70
2021/10/06 07:49:20;;;;;;;5.90;2.40;;;;;;;10.25;100.00;100935.72;5191071;28;20069;-70
2021/10/06 07:51:51;;;;;;;9.48;2.72;;;;;;;10.26;100.00;100939.16;5193360;28;20065;-70
2021/10/06 07:54:23;;;;;;;4.30;2.33;;;;;;;10.24;100.00;100942.72;5193910;28;20427;-70
2021/10/06 07:56:54;;;;;;;5.80;2.70;;;;;;;10.26;100.00;100945.22;5191041;28;20030;-70
2021/10/06 07:59:25;;;;;;;5.15;2.83;;;;;;;10.23;100.00;100955.94;5192105;28;20118;-70
2021/10/06 08:01:57;;;;;;;6.85;2.97;;;;;;;10.30;100.00;100953.66;5191421;28;20054;-70
2021/10/06 08:04:28;;;;;;;4.40;2.67;;;;;;;10.32;100.00;100957.00;5193084;28;20076;-70
2021/10/06 08:06:59;;;;;;;8.82;2.80;;;;;;;10.38;100.00;100962.56;5193411;28;20507;-70
2021/10/06 08:09:32;;;;;;;5.75;2.80;;;;;;;10.37;100.00;100945.19;5193319;28;20625;-70
2021/10/06 08:12:03;;;;;;;5.85;2.78;;;;;;;10.44;100.00;100972.53;5194792;28;20026;-70
2021/10/06 08:14:35;;;;;;;5.30;3.17;;;;;;;10.43;100.00;100973.50;5188606;28;20030;-70
2021/10/06 08:17:06;;;;;;;5.53;2.72;;;;;;;10.42;100.00;100978.88;5191140;28;20778;-70
2021/10/06 08:19:37;;;;;;;6.43;3.05;;;;;;;10.41;100.00;100985.03;5187728;28;20033;-70
2021/10/06 08:22:09;;;;;;;5.80;2.90;;;;;;;10.44;100.00;100992.66;5187523;28;20022;-70
2021/10/06 08:24:40;;;;;;;4.93;3.40;;;;;;;10.45;100.00;101007.41;5190305;28;20030;-70
2021/10/06 08:27:13;;;;;;;4.03;3.33;;;;;;;10.45;100.00;101000.41;5196129;28;20076;-70
2021/10/06 08:29:44;;;;;;;4.65;2.97;;;;;;;10.49;100.00;101008.81;5193465;28;20077;-70
2021/10/06 08:32:16;;;;;;;5.78;3.50;;;;;;;10.54;100.00;101024.19;5192137;28;20117;-70
2021/10/06 08:34:48;;;;;;;3.97;3.13;;;;;;;10.57;100.00;101016.03;5193222;28;20041;-70
2021/10/06 08:37:20;;;;;;;6.45;3.47;;;;;;;10.61;100.00;101012.25;5192603;28;20121;-70
2021/10/06 08:39:51;;;;;;;6.78;3.70;;;;;;;10.70;100.00;101024.56;5191250;28;20053;-70
2021/10/06 08:42:22;;;;;;;4.07;3.33;;;;;;;10.74;100.00;101035.63;5188434;28;20322;-70
2021/10/06 08:44:54;;;;;;;4.32;3.10;;;;;;;10.70;100.00;101041.13;5192304;28;20392;-70
2021/10/06 08:47:25;;;;;;;6.32;2.97;;;;;;;10.68;100.00;101044.81;5186784;28;20455;-70
2021/10/06 08:49:57;;;;;;;6.88;3.38;;;;;;;10.73;100.00;101044.47;5193988;28;20032;-71
2021/10/06 08:52:28;;;;;;;3.83;3.08;;;;;;;10.69;100.00;101052.56;5191896;28;20514;-70
2021/10/06 08:55:05;;;;;;;5.88;3.30;;;;;;;10.73;100.00;101055.78;5190109;28;20045;-69
2021/10/06 08:57:37;;;;;;;7.82;3.40;;;;;;;10.70;100.00;101059.47;5191775;28;20530;-70
2021/10/06 09:00:10;;;;;;;4.80;3.03;;;;;;;10.77;100.00;101057.19;5186127;28;20030;-70
2021/10/06 09:02:42;;;;;;;5.15;3.50;;;;;;;10.82;100.00;101056.81;5188976;28;20093;-70
2021/10/06 09:05:14;;;;;;;4.68;3.50;;;;;;;10.89;100.00;101060.59;5186477;28;20101;-70
2021/10/06 09:08:05;;;;;;;4.63;3.22;;;;;;;11.05;100.00;101058.34;5189063;28;20396;-70
2021/10/06 09:10:36;;;;;;;6.97;4.15;;;;;;;10.99;100.00;101071.97;5188788;28;20129;-70
2021/10/06 09:13:08;;;;;;;4.88;3.72;;;;;;;10.99;100.00;101071.16;5183854;28;20113;-70
2021/10/06 09:15:42;;;;;;;7.30;4.22;;;;;;;11.04;100.00;101082.06;5192000;28;20018;-70
2021/10/06 09:18:18;;;;;;;7.68;4.00;;;;;;;11.07;100.00;101084.44;5192321;28;20038;-70
2021/10/06 09:20:50;;;;;;;9.25;4.45;;;;;;;11.05;100.00;101083.72;5192837;28;20595;-70
2021/10/06 09:23:23;;;;;;;6.20;4.17;;;;;;;11.10;100.00;101092.91;5190633;28;20093;-70
2021/10/06 09:26:03;;;;;;;7.15;3.90;;;;;;;11.16;100.00;101088.91;5188983;28;20645;-70
2021/10/06 09:28:43;;;;;;;7.85;4.20;;;;;;;11.22;100.00;101109.41;5192615;28;20034;-70
2021/10/06 09:31:16;;;;;;;7.85;3.83;;;;;;;11.19;100.00;101107.03;5191861;28;20547;-70
2021/10/06 09:33:54;;;;;;;6.65;4.03;;;;;;;11.19;100.00;101107.03;5194107;28;20070;-70
2021/10/06 09:36:29;;;;;;;6.78;3.72;;;;;;;11.20;100.00;101120.00;5191684;28;20489;-70
2021/10/06 09:39:06;;;;;;;6.32;3.95;;;;;;;11.23;100.00;101113.69;5190155;28;20030;-70
2021/10/06 09:41:43;;;;;;;5.75;4.22;;;;;;;11.27;100.00;101122.13;5190587;28;20502;-70
2021/10/06 09:44:23;;;;;;;6.57;4.10;;;;;;;11.28;100.00;101124.59;5191789;28;20117;-70
2021/10/06 09:47:00;;;;;;;5.35;3.97;;;;;;;11.29;100.00;101126.28;5193488;28;20068;-70
2021/10/06 09:49:34;;;;;;;7.60;4.40;;;;;;;11.29;100.00;101118.44;5192623;28;20655;-70
2021/10/06 09:52:27;;;;;;;7.60;4.10;;;;;;;11.34;100.00;101124.09;5190948;28;20073;-70
2021/10/06 09:55:07;;;;;;;8.88;4.40;;;;;;;11.31;100.00;101120.91;5191547;28;20046;-70
2021/10/06 09:57:40;;;;;;;7.10;3.95;;;;;;;11.32;100.00;101118.13;5188882;28;20043;-70
2021/10/06 10:00:17;;;;;;;;;;;;;;;11.55;100.00;101126.69;5190510;28;20030;-70
2021/10/06 10:02:49;;;;;;;6.13;3.88;;;;;;;11.39;100.00;101137.66;5193683;28;19930;-70
2021/10/06 10:05:21;;;;;;;4.95;3.72;;;;;;;11.36;100.00;101145.78;5190500;28;20480;-70
2021/10/06 10:07:53;;;;;;;6.97;3.75;;;;;;;11.42;100.00;101152.31;5191125;28;20049;-70
2021/10/06 10:10:25;;;;;;;6.60;3.47;;;;;;;11.40;100.00;101148.97;5190939;28;20035;-70
2021/10/06 10:12:57;;;;;;;8.05;3.88;;;;;;;11.48;100.00;101148.34;5190849;28;20057;-70
2021/10/06 10:15:29;;;;;;;9.18;4.05;;;;;;;11.57;100.00;101150.22;5191311;28;20050;-70
2021/10/06 10:18:06;;;;;;;7.20;4.78;;;;;;;11.67;100.00;101144.06;5189643;28;20034;-70
2021/10/06 10:20:42;;;;;;;6.97;4.95;;;;;;;11.77;100.00;101146.72;5193637;28;20042;-70
2021/10/06 10:23:17;;;;;;;7.38;5.03;;;;;;;11.81;100.00;101153.38;5193645;28;20026;-70
2021/10/06 10:25:48;;;;;;;7.32;5.18;;;;;;;11.80;100.00;101149.09;5192937;28;20053;-70
2021/10/06 10:28:21;;;;;;;8.60;4.63;;;;;;;11.83;100.00;101153.25;5194503;28;20035;-70
2021/10/06 10:30:55;;;;;;;6.90;3.75;;;;;;;11.91;100.00;101163.97;5191151;28;20046;-70
2021/10/06 10:33:39;;;;;;;8.70;3.90;;;;;;;12.07;100.00;101159.06;5190098;28;20134;-70
2021/10/06 10:36:37;;;;;;;5.43;3.70;;;;;;;12.26;100.00;101160.91;5192345;28;20022;-70
2021/10/06 10:39:36;;;;;;;8.15;4.63;;;;;;;12.38;100.00;101170.34;5193264;28;20092;-70
2021/10/06 10:42:07;;;;;;;9.60;4.40;;;;;;;12.43;100.00;101166.53;5190079;28;20037;-71
2021/10/06 10:44:40;;;;;;;7.63;4.50;;;;;;;12.58;100.00;101175.69;5190744;28;20033;-70
2021/10/06 10:47:13;;;;;;;6.35;3.58;;;;;;;12.53;100.00;101176.06;5191119;28;20045;-70
2021/10/06 10:49:45;;;;;;;9.85;3.50;;;;;;;12.53;100.00;101178.69;5205804;28;20048;-70
2021/10/06 10:52:17;;;;;;;7.25;3.33;;;;;;;12.55;100.00;101187.28;5192425;28;20731;-69
2021/10/06 10:54:49;;;;;;;6.70;2.95;;;;;;;12.57;100.00;101190.59;5188075;28;20113;-70
2021/10/06 10:57:28;;;;;;;9.70;2.80;;;;;;;12.58;100.00;101199.34;5194604;28;20105;-70
2021/10/06 11:00:00;;;;;;;12.30;3.40;;;;;;;12.66;100.00;101202.13;5189324;28;20045;-69
2021/10/06 11:02:34;;;;;;;12.60;4.20;;;;;;;12.75;100.00;101201.31;5192226;28;20034;-70
2021/10/06 11:05:07;;;;;;;9.95;2.97;;;;;;;12.76;100.00;101196.88;5191495;28;20054;-70
2021/10/06 11:07:52;;;;;;;;;;;;;;;13.08;100.00;101202.72;5189023;28;20579;-70
2021/10/06 11:10:27;;;;;;;9.05;2.97;;;;;;;12.99;100.00;101206.16;5187405;28;19921;-70
2021/10/06 11:13:05;;;;;;;7.63;2.58;;;;;;;13.02;100.00;101208.53;5188488;28;20038;-70
2021/10/06 11:15:36;;;;;;;10.25;2.70;;;;;;;13.08;100.00;101212.44;5187081;28;20030;-70
2021/10/06 11:18:12;;;;;;;11.85;2.92;;;;;;;13.30;100.00;101211.38;5191084;28;20026;-70
2021/10/06 11:20:52;;;;;;;9.57;2.50;;;;;;;13.26;100.00;101220.47;5190002;28;20058;-70
2021/10/06 11:23:30;;;;;;;12.68;2.63;;;;;;;13.31;100.00;101223.53;5187296;28;20038;-70
2021/10/06 11:26:04;;;;;;;7.00;2.33;;;;;;;13.28;100.00;101231.72;5181025;28;20038;-70
2021/10/06 11:28:38;;;;;;;11.13;2.40;;;;;;;13.14;100.00;101239.03;5181060;28;20031;-70
2021/10/06 11:31:10;;;;;;;10.25;2.63;;;;;;;13.07;100.00;101230.00;5181789;28;20031;-70
2021/10/06 11:33:41;;;;;;;10.38;2.75;;;;;;;13.03;100.00;101239.16;5180102;28;20068;-70
2021/10/06 11:36:17;;;;;;;7.50;2.53;;;;;;;13.00;100.00;101235.97;5184321;28;20055;-70
2021/10/06 11:38:54;;;;;;;9.98;2.72;;;;;;;12.98;100.00;101248.41;5184963;28;20030;-71
2021/10/06 11:41:25;;;;;;;6.65;1.83;;;;;;;12.95;100.00;101236.34;5180124;28;20062;-72